createdAt,value
2023-02-22T00:01:44.165Z,24.07
2023-02-22T00:04:11.124Z,17.33
2023-02-22T00:06:37.952Z,22.43
2023-02-22T00:09:05.064Z,26.13
2023-02-22T00:11:31.886Z,19.60
2023-02-22T00:13:58.807Z,20.80
2023-02-22T00:16:26.663Z,22.37
2023-02-22T00:18:54.050Z,22.57
2023-02-22T00:21:21.178Z,21.30
2023-02-22T00:23:49.112Z,17.27
2023-02-22T00:26:19.198Z,24.30
2023-02-22T00:28:51.144Z,19.50
2023-02-22T00:31:18.898Z,30.63
2023-02-22T00:33:45.938Z,26.37
2023-02-22T00:36:13.910Z,21.83
2023-02-22T00:38:41.486Z,27.13
2023-02-22T00:41:08.912Z,24.43
2023-02-22T00:43:36.097Z,24.27
2023-02-22T00:46:03.238Z,20.03
2023-02-22T00:48:30.178Z,25.43
2023-02-22T00:50:58.821Z,27.50
2023-02-22T00:53:26.086Z,25.07
2023-02-22T00:55:53.545Z,23.93
2023-02-22T00:58:20.473Z,23.57
2023-02-22T01:00:47.354Z,22.70
2023-02-22T01:03:16.739Z,33.00
2023-02-22T01:05:44.106Z,30.60
2023-02-22T01:08:12.295Z,28.60
2023-02-22T01:10:39.745Z,24.63
2023-02-22T01:13:09.383Z,32.80
2023-02-22T01:15:38.080Z,29.67
2023-02-22T01:18:05.480Z,30.63
2023-02-22T01:20:32.582Z,25.27
2023-02-22T01:23:00.435Z,21.17
2023-02-22T01:25:29.842Z,31.47
2023-02-22T01:27:57.440Z,29.57
2023-02-22T01:30:26.753Z,35.17
2023-02-22T01:32:54.083Z,37.23
2023-02-22T01:35:22.463Z,34.13
2023-02-22T01:37:50.491Z,33.87
2023-02-22T01:40:20.586Z,29.63
2023-02-22T01:42:48.268Z,36.97
2023-02-22T01:45:29.823Z,31.20
2023-02-22T01:47:58.441Z,40.00
2023-02-22T01:50:25.237Z,29.23
2023-02-22T01:52:52.111Z,46.00
2023-02-22T01:55:19.377Z,34.73
2023-02-22T01:57:46.824Z,35.57
2023-02-22T02:00:17.050Z,37.93
2023-02-22T02:02:46.971Z,32.77
2023-02-22T02:05:14.012Z,37.67
2023-02-22T02:07:41.099Z,44.27
2023-02-22T02:10:14.555Z,41.43
2023-02-22T02:12:48.835Z,49.00
2023-02-22T02:15:25.395Z,56.63
2023-02-22T02:17:54.201Z,49.50
2023-02-22T02:20:27.156Z,47.30
2023-02-22T02:23:01.084Z,43.73
2023-02-22T02:25:46.282Z,38.73
2023-02-22T02:28:34.296Z,44.63
2023-02-22T02:31:19.813Z,44.43
2023-02-22T02:33:50.257Z,41.47
2023-02-22T02:36:26.751Z,39.47
2023-02-22T02:39:05.884Z,45.67
2023-02-22T02:41:37.366Z,48.00
2023-02-22T02:44:10.293Z,42.30
2023-02-22T02:46:37.505Z,49.07
2023-02-22T02:49:09.040Z,45.93
2023-02-22T02:51:38.359Z,40.30
2023-02-22T02:54:06.328Z,44.37
2023-02-22T02:56:33.556Z,40.93
2023-02-22T02:59:00.621Z,40.30
2023-02-22T03:01:42.843Z,36.67
2023-02-22T03:04:20.633Z,42.10
2023-02-22T03:07:06.094Z,43.73
2023-02-22T03:09:37.153Z,37.93
2023-02-22T03:12:13.118Z,34.67
2023-02-22T03:14:39.987Z,43.83
2023-02-22T03:17:06.879Z,32.93
2023-02-22T03:19:48.053Z,30.23
2023-02-22T03:22:18.789Z,34.07
2023-02-22T03:24:45.589Z,26.73
2023-02-22T03:27:14.814Z,30.03
2023-02-22T03:29:47.370Z,22.93
2023-02-22T03:32:16.964Z,25.13
2023-02-22T03:34:46.396Z,26.57
2023-02-22T03:37:16.832Z,28.07
2023-02-22T03:39:47.632Z,33.27
2023-02-22T03:42:16.537Z,23.93
2023-02-22T03:44:44.013Z,24.37
2023-02-22T03:47:16.436Z,21.90
2023-02-22T03:49:49.825Z,18.63
2023-02-22T03:52:17.576Z,24.10
2023-02-22T03:54:44.545Z,26.03
2023-02-22T03:57:17.168Z,30.80
2023-02-22T03:59:45.324Z,23.40
2023-02-22T04:02:12.216Z,27.37
2023-02-22T04:04:39.045Z,24.83
2023-02-22T04:09:51.206Z,19.53
2023-02-22T04:12:18.558Z,19.23
2023-02-22T04:14:59.125Z,21.37
2023-02-22T04:17:26.122Z,16.43
2023-02-22T04:19:53.113Z,18.27
2023-02-22T04:22:22.224Z,22.83
2023-02-22T04:24:49.192Z,15.73
2023-02-22T04:27:17.946Z,20.20
2023-02-22T04:29:45.565Z,26.03
2023-02-22T04:32:12.438Z,22.47
2023-02-22T04:34:39.601Z,20.23
2023-02-22T04:37:07.840Z,25.70
2023-02-22T04:39:35.327Z,28.77
2023-02-22T04:42:02.248Z,26.30
2023-02-22T04:44:29.839Z,28.07
2023-02-22T04:46:57.873Z,24.30
2023-02-22T04:49:25.018Z,33.50
2023-02-22T04:51:53.622Z,29.93
2023-02-22T04:54:24.539Z,33.97
2023-02-22T04:56:52.316Z,33.13
2023-02-22T04:59:19.933Z,27.83
2023-02-22T05:01:53.722Z,26.33
2023-02-22T05:04:21.907Z,32.10
2023-02-22T05:06:48.887Z,29.10
2023-02-22T05:09:15.778Z,33.53
2023-02-22T05:11:42.516Z,34.23
2023-02-22T05:14:09.328Z,35.03
2023-02-22T05:16:36.339Z,30.50
2023-02-22T05:19:03.304Z,29.10
2023-02-22T05:21:30.157Z,28.33
2023-02-22T05:23:57.672Z,37.33
2023-02-22T05:26:24.606Z,31.57
2023-02-22T05:28:51.363Z,38.90
2023-02-22T05:31:18.535Z,39.27
2023-02-22T05:33:45.519Z,27.53
2023-02-22T05:36:12.424Z,37.67
2023-02-22T05:38:43.658Z,29.67
2023-02-22T05:41:13.903Z,36.27
2023-02-22T05:43:41.008Z,41.80
2023-02-22T05:46:08.213Z,30.43
2023-02-22T05:48:35.142Z,25.50
2023-02-22T05:51:02.182Z,27.47
2023-02-22T05:53:29.251Z,29.53
2023-02-22T05:55:56.105Z,32.87
2023-02-22T05:58:23.492Z,31.23
2023-02-22T06:00:50.550Z,29.20
2023-02-22T06:03:17.355Z,36.80
2023-02-22T06:05:44.444Z,26.20
2023-02-22T06:08:11.486Z,30.60
2023-02-22T06:10:38.435Z,28.47
2023-02-22T06:13:05.867Z,31.03
2023-02-22T06:15:32.712Z,26.10
2023-02-22T06:18:00.338Z,22.33
2023-02-22T06:20:28.279Z,27.83
2023-02-22T06:22:56.240Z,28.77
2023-02-22T06:25:24.378Z,30.37
2023-02-22T06:27:51.568Z,26.93
2023-02-22T06:30:20.030Z,27.17
2023-02-22T06:32:46.977Z,29.00
2023-02-22T06:35:14.918Z,27.90
2023-02-22T06:37:41.901Z,28.13
2023-02-22T06:40:09.251Z,35.00
2023-02-22T06:42:36.332Z,38.77
2023-02-22T06:45:03.361Z,32.70
2023-02-22T06:47:30.158Z,64.17
2023-02-22T06:49:58.204Z,62.20
2023-02-22T06:52:25.281Z,64.77
2023-02-22T06:54:52.216Z,41.10
2023-02-22T06:57:19.303Z,32.63
2023-02-22T06:59:46.673Z,39.43
2023-02-22T07:02:14.145Z,39.97
2023-02-22T07:04:43.269Z,45.70
2023-02-22T07:07:10.972Z,49.77
2023-02-22T07:09:37.763Z,38.60
2023-02-22T07:12:04.626Z,37.13
2023-02-22T07:14:31.482Z,30.87
2023-02-22T07:16:58.302Z,44.87
2023-02-22T07:19:25.191Z,36.37
2023-02-22T07:21:59.430Z,40.47
2023-02-22T07:24:28.653Z,37.90
2023-02-22T07:26:55.581Z,43.17
2023-02-22T07:29:25.324Z,52.33
2023-02-22T07:31:52.142Z,42.93
2023-02-22T07:34:19.023Z,39.90
2023-02-22T07:36:45.908Z,37.50
2023-02-22T07:39:12.870Z,36.20
2023-02-22T07:41:39.909Z,30.80
2023-02-22T07:44:19.004Z,34.70
2023-02-22T07:46:50.530Z,55.77
2023-02-22T07:49:17.916Z,67.43
2023-02-22T07:51:44.752Z,57.03
2023-02-22T07:54:11.633Z,51.03
2023-02-22T07:56:44.114Z,46.93
2023-02-22T07:59:11.029Z,38.57
2023-02-22T08:01:37.785Z,34.30
2023-02-22T08:04:04.863Z,33.00
2023-02-22T08:06:32.242Z,36.83
2023-02-22T08:08:59.327Z,36.40
2023-02-22T08:11:26.575Z,39.57
2023-02-22T08:13:53.422Z,36.47
2023-02-22T08:16:20.201Z,31.93
2023-02-22T08:18:47.037Z,38.60
2023-02-22T08:21:13.953Z,41.20
2023-02-22T08:23:40.833Z,44.50
2023-02-22T08:26:09.008Z,34.33
2023-02-22T08:28:35.803Z,22.60
2023-02-22T08:31:03.518Z,34.93
2023-02-22T08:33:30.757Z,36.00
2023-02-22T08:35:58.031Z,33.40
2023-02-22T08:38:29.376Z,40.83
2023-02-22T08:40:56.659Z,37.20
2023-02-22T08:43:23.721Z,31.97
2023-02-22T08:45:52.101Z,34.47
2023-02-22T08:48:19.399Z,27.77
2023-02-22T08:50:46.943Z,33.77
2023-02-22T08:53:14.502Z,29.73
2023-02-22T08:55:42.219Z,24.80
2023-02-22T08:58:12.477Z,23.57
2023-02-22T09:00:40.180Z,28.10
2023-02-22T09:03:08.626Z,18.50
2023-02-22T09:05:35.551Z,22.00
2023-02-22T09:08:02.345Z,15.73
2023-02-22T09:10:31.340Z,16.93
2023-02-22T09:12:58.364Z,22.73
2023-02-22T09:15:25.612Z,18.83
2023-02-22T09:17:53.415Z,16.87
2023-02-22T09:20:21.137Z,16.00
2023-02-22T09:22:48.799Z,22.80
2023-02-22T09:25:17.217Z,14.50
2023-02-22T09:27:45.184Z,17.90
2023-02-22T09:30:32.508Z,24.10
2023-02-22T09:33:12.488Z,19.80
2023-02-22T09:35:42.767Z,14.30
2023-02-22T09:38:10.524Z,16.33
2023-02-22T09:40:45.527Z,15.83
2023-02-22T09:43:21.035Z,21.10
2023-02-22T09:46:05.576Z,20.97
2023-02-22T09:48:34.637Z,16.30
2023-02-22T09:51:02.612Z,19.63
2023-02-22T09:53:36.677Z,16.93
2023-02-22T09:56:22.601Z,18.00
2023-02-22T09:58:52.485Z,16.43
2023-02-22T10:01:23.901Z,11.87
2023-02-22T10:04:30.648Z,12.67
2023-02-22T10:07:02.221Z,8.80
2023-02-22T10:09:30.592Z,9.70
2023-02-22T10:12:02.900Z,10.80
2023-02-22T10:14:38.978Z,13.27
2023-02-22T10:17:06.506Z,14.00
2023-02-22T10:19:39.228Z,10.27
2023-02-22T10:22:17.963Z,17.43
2023-02-22T10:24:45.703Z,13.30
2023-02-22T10:27:26.370Z,9.07
2023-02-22T10:29:56.628Z,9.67
2023-02-22T10:32:29.478Z,9.37
2023-02-22T10:34:58.504Z,8.80
2023-02-22T10:37:27.287Z,6.83
2023-02-22T10:39:59.873Z,11.80
2023-02-22T10:42:27.675Z,9.20
2023-02-22T10:44:54.661Z,8.97
2023-02-22T10:47:22.175Z,9.00
2023-02-22T10:50:00.717Z,12.40
2023-02-22T10:52:32.225Z,9.40
2023-02-22T10:55:14.041Z,11.10
2023-02-22T10:57:42.562Z,11.00
2023-02-22T11:00:29.642Z,10.87
2023-02-22T11:02:58.802Z,10.73
2023-02-22T11:05:30.435Z,12.43
2023-02-22T11:08:15.625Z,10.90
2023-02-22T11:10:43.555Z,16.97
2023-02-22T11:13:31.452Z,8.57
2023-02-22T11:16:16.837Z,12.07
2023-02-22T11:18:43.875Z,12.67
2023-02-22T11:21:12.464Z,12.67
2023-02-22T11:23:44.855Z,7.97
2023-02-22T11:26:16.185Z,14.37
2023-02-22T11:28:49.556Z,13.73
2023-02-22T11:31:24.567Z,10.93
2023-02-22T11:33:59.397Z,15.83
2023-02-22T11:36:44.474Z,12.23
2023-02-22T11:39:25.335Z,9.73
2023-02-22T11:41:52.405Z,14.77
2023-02-22T11:44:28.397Z,10.03
2023-02-22T11:46:56.443Z,8.83
2023-02-22T11:49:33.521Z,12.33
2023-02-22T11:52:12.742Z,11.53
2023-02-22T11:54:39.563Z,13.23
2023-02-22T11:57:07.378Z,11.53
2023-02-22T11:59:55.848Z,20.53
2023-02-22T12:02:25.553Z,16.50
2023-02-22T12:04:52.499Z,17.93
2023-02-22T12:07:22.317Z,15.47
2023-02-22T12:09:52.364Z,14.83
2023-02-22T12:12:38.822Z,11.40
2023-02-22T12:15:14.874Z,14.90
2023-02-22T12:18:05.419Z,17.93
2023-02-22T12:20:37.836Z,20.03
2023-02-22T12:23:37.179Z,14.47
2023-02-22T12:26:08.540Z,19.37
2023-02-22T12:28:45.642Z,10.03
2023-02-22T12:31:25.454Z,19.33
2023-02-22T12:34:12.674Z,14.17
2023-02-22T12:36:48.531Z,15.43
2023-02-22T12:39:47.146Z,14.10
2023-02-22T12:42:21.154Z,13.23
2023-02-22T12:44:52.827Z,10.10
2023-02-22T12:47:23.364Z,13.50
2023-02-22T12:49:56.447Z,12.33
2023-02-22T12:52:40.285Z,13.00
2023-02-22T12:55:25.360Z,10.30
2023-02-22T12:58:10.524Z,11.83
2023-02-22T13:01:07.260Z,13.83
2023-02-22T13:03:44.336Z,12.97
2023-02-22T13:06:29.955Z,14.83
2023-02-22T13:09:06.097Z,15.43
2023-02-22T13:11:32.922Z,15.27
2023-02-22T13:14:08.704Z,13.77
2023-02-22T13:16:38.647Z,20.07
2023-02-22T13:19:20.837Z,17.70
2023-02-22T13:21:57.387Z,20.90
2023-02-22T13:24:33.063Z,10.37
2023-02-22T13:27:12.077Z,14.20
2023-02-22T13:29:40.181Z,17.73
2023-02-22T13:32:22.101Z,15.93
2023-02-22T13:34:51.844Z,16.43
2023-02-22T13:37:21.432Z,13.17
2023-02-22T13:39:55.154Z,17.30
2023-02-22T13:42:22.689Z,13.17
2023-02-22T13:44:57.419Z,14.37
2023-02-22T13:47:30.470Z,16.73
2023-02-22T13:50:15.763Z,15.40
2023-02-22T13:52:43.275Z,16.37
2023-02-22T13:55:16.591Z,17.63
2023-02-22T13:57:49.874Z,15.20
2023-02-22T14:00:17.902Z,14.70
2023-02-22T14:03:01.411Z,14.03
2023-02-22T14:05:45.458Z,16.80
2023-02-22T14:08:44.654Z,15.20
2023-02-22T14:11:31.778Z,15.70
2023-02-22T14:14:01.184Z,13.93
2023-02-22T14:16:29.811Z,18.37
2023-02-22T14:19:15.622Z,20.90
2023-02-22T14:21:56.125Z,21.43
2023-02-22T14:24:23.150Z,13.80
2023-02-22T14:26:58.132Z,12.97
2023-02-22T14:29:25.890Z,16.80
2023-02-22T14:31:52.732Z,11.73
2023-02-22T14:34:31.647Z,12.00
2023-02-22T14:37:01.232Z,15.07
2023-02-22T14:39:42.507Z,9.93
2023-02-22T14:42:18.570Z,14.43
2023-02-22T14:44:50.123Z,13.13
2023-02-22T14:47:22.938Z,15.57
2023-02-22T14:49:52.209Z,10.63
2023-02-22T14:52:21.470Z,15.07
2023-02-22T14:54:52.219Z,11.37
2023-02-22T14:57:22.007Z,13.47
2023-02-22T14:59:54.976Z,14.40
2023-02-22T15:02:26.116Z,19.17
2023-02-22T15:04:54.748Z,17.77
2023-02-22T15:07:27.451Z,13.17
2023-02-22T15:10:08.131Z,25.13
2023-02-22T15:12:35.893Z,17.30
2023-02-22T15:15:14.522Z,19.53
2023-02-22T15:17:41.755Z,28.13
2023-02-22T15:20:12.268Z,23.20
2023-02-22T15:22:39.143Z,23.90
2023-02-22T15:25:07.282Z,34.67
2023-02-22T15:27:37.102Z,55.83
2023-02-22T15:30:16.744Z,60.03
2023-02-22T15:33:01.238Z,47.30
2023-02-22T15:35:30.495Z,22.17
2023-02-22T15:38:06.582Z,21.10
2023-02-22T15:40:34.009Z,84.57
2023-02-22T15:43:02.537Z,28.23
2023-02-22T15:45:29.991Z,32.50
2023-02-22T15:47:58.756Z,53.57
2023-02-22T15:50:26.222Z,41.10
2023-02-22T15:52:53.411Z,25.67
2023-02-22T15:55:25.892Z,31.70
2023-02-22T15:57:52.936Z,42.03
2023-02-22T16:00:36.392Z,66.47
2023-02-22T16:03:08.397Z,62.77
2023-02-22T16:05:55.870Z,42.73
2023-02-22T16:08:23.379Z,41.93
2023-02-22T16:10:58.858Z,43.37
2023-02-22T16:13:31.922Z,35.57
2023-02-22T16:16:04.051Z,55.33
2023-02-22T16:18:35.537Z,52.80
2023-02-22T16:21:06.989Z,91.17
2023-02-22T16:23:43.519Z,81.80
2023-02-22T16:26:21.367Z,86.43
2023-02-22T16:28:52.068Z,116.47
2023-02-22T16:31:21.439Z,169.17
2023-02-22T16:33:49.002Z,108.77
2023-02-22T16:36:16.568Z,112.23
2023-02-22T16:38:47.345Z,85.17
2023-02-22T16:41:19.816Z,89.37
2023-02-22T16:43:47.432Z,82.13
2023-02-22T16:46:15.079Z,86.63
2023-02-22T16:48:43.735Z,44.33
2023-02-22T16:51:24.632Z,32.23
2023-02-22T16:53:53.459Z,24.67
2023-02-22T16:56:21.508Z,19.00
2023-02-22T16:58:49.996Z,16.87
2023-02-22T17:01:18.209Z,14.73
2023-02-22T17:03:45.543Z,17.83
2023-02-22T17:06:12.693Z,23.30
2023-02-22T17:08:40.527Z,21.70
2023-02-22T17:11:07.909Z,24.80
2023-02-22T17:13:37.948Z,22.33
2023-02-22T17:16:05.784Z,22.63
2023-02-22T17:18:34.391Z,39.80
2023-02-22T17:21:02.710Z,48.67
2023-02-22T17:23:29.569Z,47.60
2023-02-22T17:25:56.482Z,44.43
2023-02-22T17:28:24.662Z,46.90
2023-02-22T17:30:52.559Z,53.43
2023-02-22T17:33:20.746Z,65.80
2023-02-22T17:35:47.797Z,106.73
2023-02-22T17:38:18.660Z,100.63
2023-02-22T17:40:48.293Z,55.83
2023-02-22T17:43:15.637Z,41.10
2023-02-22T17:45:42.730Z,40.43
2023-02-22T17:48:09.625Z,55.13
2023-02-22T17:50:37.304Z,59.80
2023-02-22T17:53:04.990Z,54.10
2023-02-22T17:55:34.136Z,56.17
2023-02-22T17:58:01.170Z,94.67
2023-02-22T18:00:36.341Z,295.50
2023-02-22T18:03:04.688Z,192.53
2023-02-22T18:05:33.470Z,146.47
2023-02-22T18:08:00.756Z,89.10
2023-02-22T18:10:27.667Z,55.40
2023-02-22T18:12:55.265Z,51.93
2023-02-22T18:15:22.134Z,56.77
2023-02-22T18:17:49.939Z,70.43
2023-02-22T18:20:31.741Z,63.57
2023-02-22T18:22:59.110Z,56.43
2023-02-22T18:25:26.363Z,61.17
2023-02-22T18:27:55.291Z,57.17
2023-02-22T18:30:22.345Z,69.50
2023-02-22T18:32:49.280Z,61.03
2023-02-22T18:35:16.097Z,58.80
2023-02-22T18:37:44.644Z,81.47
2023-02-22T18:40:11.506Z,77.40
2023-02-22T18:42:39.185Z,61.43
2023-02-22T18:45:06.628Z,65.03
2023-02-22T18:47:38.347Z,73.47
2023-02-22T18:50:05.391Z,68.37
2023-02-22T18:52:33.555Z,72.87
2023-02-22T18:55:00.430Z,71.53
2023-02-22T18:57:27.873Z,71.07
2023-02-22T18:59:57.122Z,75.70
2023-02-22T19:02:25.735Z,63.27
2023-02-22T19:04:53.203Z,76.47
2023-02-22T19:07:22.201Z,62.37
2023-02-22T19:09:52.440Z,70.10
2023-02-22T19:12:19.696Z,63.23
2023-02-22T19:14:46.468Z,64.67
2023-02-22T19:17:16.835Z,66.07
2023-02-22T19:19:44.143Z,67.00
2023-02-22T19:22:15.310Z,72.30
2023-02-22T19:24:43.046Z,58.73
2023-02-22T19:27:10.504Z,67.30
2023-02-22T19:29:40.749Z,63.10
2023-02-22T19:32:08.830Z,66.63
2023-02-22T19:34:37.211Z,66.60
2023-02-22T19:37:05.603Z,55.43
2023-02-22T19:39:34.122Z,51.23
2023-02-22T19:42:02.472Z,57.73
2023-02-22T19:44:30.594Z,55.67
2023-02-22T19:46:58.625Z,54.10
2023-02-22T19:49:27.618Z,50.83
2023-02-22T19:51:58.418Z,49.23
2023-02-22T19:54:25.964Z,43.13
2023-02-22T19:56:53.260Z,51.27
2023-02-22T19:59:24.349Z,44.10
2023-02-22T20:01:55.518Z,52.50
2023-02-22T20:04:24.144Z,51.67
2023-02-22T20:06:55.290Z,55.07
2023-02-22T20:09:24.498Z,57.60
2023-02-22T20:11:52.597Z,61.13
2023-02-22T20:14:24.484Z,60.70
2023-02-22T20:16:52.059Z,60.43
2023-02-22T20:19:18.887Z,69.23
2023-02-22T20:21:46.036Z,67.07
2023-02-22T20:24:15.778Z,66.03
2023-02-22T20:26:43.513Z,72.23
2023-02-22T20:29:11.486Z,62.97
2023-02-22T20:31:40.577Z,56.57
2023-02-22T20:34:10.131Z,54.97
2023-02-22T20:36:41.749Z,59.53
2023-02-22T20:39:13.876Z,46.40
2023-02-22T20:41:43.373Z,53.17
2023-02-22T20:44:12.343Z,45.30
2023-02-22T20:46:40.080Z,42.73
2023-02-22T20:49:08.405Z,41.37
2023-02-22T20:51:35.649Z,41.67
2023-02-22T20:54:03.194Z,44.10
2023-02-22T20:56:30.835Z,43.47
2023-02-22T20:58:58.689Z,39.63
2023-02-22T21:01:25.812Z,47.97
2023-02-22T21:03:52.742Z,45.20
2023-02-22T21:06:21.641Z,41.47
2023-02-22T21:08:53.914Z,41.40
2023-02-22T21:11:21.416Z,39.07
2023-02-22T21:13:48.195Z,41.73
2023-02-22T21:16:21.705Z,37.73
2023-02-22T21:18:52.182Z,37.53
2023-02-22T21:21:19.761Z,39.30
2023-02-22T21:23:51.446Z,38.80
2023-02-22T21:26:19.907Z,37.43
2023-02-22T21:28:53.855Z,39.87
2023-02-22T21:31:22.843Z,40.10
2023-02-22T21:33:51.710Z,43.30
2023-02-22T21:36:18.548Z,40.70
2023-02-22T21:38:47.212Z,37.53
2023-02-22T21:41:15.935Z,45.97
2023-02-22T21:43:44.568Z,45.70
2023-02-22T21:46:11.365Z,54.87
2023-02-22T21:48:48.479Z,56.97
2023-02-22T21:51:21.019Z,49.53
2023-02-22T21:53:50.701Z,49.20
2023-02-22T21:56:22.641Z,51.47
2023-02-22T21:58:54.384Z,45.37
2023-02-22T22:01:22.043Z,34.27
2023-02-22T22:03:49.581Z,40.43
2023-02-22T22:06:16.598Z,36.93
2023-02-22T22:08:44.103Z,43.13
2023-02-22T22:11:12.189Z,44.30
2023-02-22T22:13:41.133Z,36.97
2023-02-22T22:16:09.854Z,38.83
2023-02-22T22:18:37.573Z,35.30
2023-02-22T22:21:10.682Z,36.87
2023-02-22T22:23:42.122Z,34.57
2023-02-22T22:26:13.517Z,37.40
2023-02-22T22:28:41.802Z,36.37
2023-02-22T22:31:09.178Z,37.53
2023-02-22T22:33:37.135Z,36.50
2023-02-22T22:36:06.085Z,39.70
2023-02-22T22:38:34.316Z,37.27
2023-02-22T22:41:02.569Z,37.73
2023-02-22T22:43:30.327Z,36.97
2023-02-22T22:46:03.057Z,35.97
2023-02-22T22:48:31.745Z,37.20
2023-02-22T22:51:03.587Z,36.93
2023-02-22T22:53:32.041Z,44.17
2023-02-22T22:56:19.852Z,45.50
2023-02-22T22:58:52.289Z,42.13
2023-02-22T23:01:27.272Z,40.67
2023-02-22T23:04:01.672Z,38.63
2023-02-22T23:06:33.602Z,33.03
2023-02-22T23:09:11.741Z,40.50
2023-02-22T23:11:45.134Z,36.00
2023-02-22T23:14:20.840Z,30.43
2023-02-22T23:16:49.661Z,38.20
2023-02-22T23:19:16.730Z,36.47
2023-02-22T23:21:46.682Z,44.83
2023-02-22T23:24:16.310Z,39.03
2023-02-22T23:26:49.336Z,41.20
2023-02-22T23:29:17.483Z,39.87
2023-02-22T23:31:48.736Z,37.13
2023-02-22T23:34:21.427Z,42.33
2023-02-22T23:36:48.921Z,36.53
2023-02-22T23:39:17.237Z,42.43
2023-02-22T23:41:44.106Z,41.37
2023-02-22T23:44:14.146Z,37.23
2023-02-22T23:46:41.894Z,33.40
2023-02-22T23:49:10.023Z,37.10
2023-02-22T23:51:43.095Z,41.63
2023-02-22T23:54:12.586Z,34.63
2023-02-22T23:56:40.477Z,38.10
2023-02-22T23:59:13.754Z,40.13
